Flight Track Log - Related Links

Times and Time Zones

All times are in EDT time to prevent confusion due to time zone crossing. See the SWA2219 flight status page for this flight to view local times or setup timezone preferences in your user account.

Time Position Orientation Groundspeed Altitude Reporting Facility
EDT Latitude Longitude Course Direction KTS MPH feet Rate Location/Type
Sat 09:09:37 PM 36.0778 -115.1064 93° East 202 232 3,500  Level Los Angeles Center
Sat 09:10:25 PM 36.0753 -115.0461 93° East 212 244 4,900 2,082 Climbing Los Angeles Center
Sat 09:11:15 PM 36.0744 -114.9833 91° East 221 254 6,900 2,324 Climbing Los Angeles Center
Sat 09:12:16 PM 36.0672 -114.8864 95° East 272 313 9,200 2,390 Climbing Los Angeles Center
Sat 09:13:18 PM 36.0503 -114.7839 102° East 303 349 11,800 2,341 Climbing Los Angeles Center
Sat 09:14:19 PM 36.0364 -114.6717 99° East 326 375 14,000 2,585 Climbing Los Angeles Center
Sat 09:15:21 PM 36.0169 -114.5281 99° East 352 405 17,100 2,780 Climbing Los Angeles Center
Sat 09:16:22 PM 35.9964 -114.4000 101° East 376 433 19,700 2,262 Climbing Los Angeles Center
Sat 09:17:23 PM 35.9756 -114.2658 101° East 394 453 21,700 1,854 Climbing Los Angeles Center
Sat 09:18:25 PM 35.9553 -114.1233 100° East 418 481 23,500 1,854 Climbing Los Angeles Center
Sat 09:19:26 PM 35.9344 -113.9758 100° East 435 501 25,500 1,902 Climbing Los Angeles Center
Sat 09:20:28 PM 35.9117 -113.8264 101° East 442 509 27,400 1,659 Climbing Los Angeles Center
Sat 09:21:29 PM 35.8861 -113.6742 102° East 451 519 28,900 1,426 Climbing Los Angeles Center
Sat 09:22:30 PM 35.8633 -113.5200 100° East 456 525 30,300 1,659 Climbing Los Angeles Center
Sat 09:23:32 PM 35.8381 -113.3647 101° East 461 531 32,300 1,707 Climbing Los Angeles Center
Sat 09:24:33 PM 35.8142 -113.2122 101° East 457 526 33,800 1,672 Climbing Los Angeles Center
Sat 09:25:34 PM 35.7842 -113.0292 101° East 455 524 35,700 1,561 Climbing Los Angeles Center
Sat 09:26:36 PM 35.7608 -112.8786 101° East 451 519 37,000 634 Climbing Los Angeles Center
Sat 09:27:37 PM 35.7300 -112.7317 104° East 446 513 37,000  Level Los Angeles Center
Sat 09:28:38 PM 35.6764 -112.5992 116° Southeast 436 502 37,000  Level Los Angeles Center
Sat 09:29:40 PM 35.6172 -112.4681 119° Southeast 436 502 37,000  Level Los Angeles Center
Sat 09:30:41 PM 35.5600 -112.3381 118° Southeast 433 498 37,000  Level Los Angeles Center
Sat 09:31:43 PM 35.5056 -112.2064 117° Southeast 433 498 37,000  Level Los Angeles Center
Sat 09:32:44 PM 35.4581 -112.0717 113° Southeast 432 497 37,000  Level Los Angeles Center
Sat 09:33:45 PM 35.4092 -111.9364 114° Southeast 436 502 37,000  Level Los Angeles Center
Sat 09:34:36 PM 35.3586 -111.7994 114° Southeast 438 504 37,000  Level Albuquerque Center
Sat 09:35:37 PM 35.3086 -111.6631 114° Southeast 440 506 37,000  Level Albuquerque Center
Sat 09:36:39 PM 35.2578 -111.5194 113° Southeast 441 507 37,000  Level Albuquerque Center
Sat 09:37:40 PM 35.2167 -111.3772 109° East 442 509 37,000  Level Albuquerque Center
Sat 09:38:41 PM 35.1786 -111.2336 108° East 443 510 37,000  Level Albuquerque Center
Sat 09:39:42 PM 35.1808 -111.0681 89° East 451 519 37,000  Level Albuquerque Center
Sat 09:40:43 PM 35.1919 -110.9206 85° East 453 521 37,000  Level Albuquerque Center
Sat 09:41:45 PM 35.2000 -110.7736 86° East 454 522 37,000  Level Albuquerque Center
Sat 09:42:46 PM 35.2131 -110.6036 85° East 452 520 37,000  Level Albuquerque Center
Sat 09:43:47 PM 35.2228 -110.4567 85° East 453 521 37,000  Level Albuquerque Center
Sat 09:44:48 PM 35.2347 -110.2836 85° East 455 524 37,000  Level Albuquerque Center
Sat 09:45:49 PM 35.2428 -110.1347 86° East 458 527 37,000  Level Albuquerque Center
Sat 09:46:51 PM 35.2522 -109.9858 86° East 460 529 37,000  Level Albuquerque Center
Sat 09:47:52 PM 35.2622 -109.8122 86° East 459 528 37,000  Level Albuquerque Center
Sat 09:48:53 PM 35.2703 -109.6611 86° East 463 533 37,000  Level Albuquerque Center
Sat 09:49:54 PM 35.2797 -109.4856 86° East 464 534 37,000  Level Albuquerque Center
Sat 09:50:55 PM 35.2883 -109.3372 86° East 461 531 37,000  Level Albuquerque Center
Sat 09:51:57 PM 35.2958 -109.1869 86° East 462 532 37,000  Level Albuquerque Center
Sat 09:52:58 PM 35.3058 -109.0150 86° East 458 527 37,000  Level Albuquerque Center
Sat 09:53:59 PM 35.3131 -108.8675 87° East 456 525 37,000  Level Albuquerque Center
Sat 09:55:00 PM 35.3219 -108.6961 86° East 455 524 37,000  Level Albuquerque Center
Sat 09:56:01 PM 35.3283 -108.5503 87° East 451 519 37,000  Level Albuquerque Center
Sat 09:57:02 PM 35.3364 -108.4031 86° East 453 521 37,000  Level Albuquerque Center
Sat 09:58:03 PM 35.3431 -108.2300 87° East 456 525 37,000  Level Albuquerque Center
Sat 09:59:05 PM 35.3497 -108.0792 87° East 461 531 37,000 195 Level Albuquerque Center
Sat 10:00:06 PM 35.3581 -107.9003 87° East 469 540 37,400 738 Climbing Albuquerque Center
Sat 10:01:07 PM 35.3650 -107.7481 87° East 469 540 38,500 787 Climbing Albuquerque Center
Sat 10:02:08 PM 35.3714 -107.5972 87° East 465 535 39,000 246 Climbing Albuquerque Center
Sat 10:03:09 PM 35.3858 -107.4192 84° East 471 542 39,000  Level Albuquerque Center
Sat 10:04:10 PM 35.4042 -107.2661 82° East 475 547 39,000  Level Albuquerque Center
Sat 10:05:11 PM 35.4250 -107.1008 81° East 478 550 39,000  Level Albuquerque Center
Sat 10:06:12 PM 35.4450 -106.9383 81° East 478 550 39,000  Level Albuquerque Center
Sat 10:07:13 PM 35.4564 -106.7767 85° East 472 543 39,000  Level Albuquerque Center
Sat 10:08:15 PM 35.4631 -106.6131 87° East 474 545 39,000  Level Albuquerque Center
Sat 10:09:16 PM 35.4700 -106.4514 87° East 473 544 39,000  Level Albuquerque Center
Sat 10:10:17 PM 35.4767 -106.2922 87° East 468 539 39,000  Level Albuquerque Center
Sat 10:11:18 PM 35.4819 -106.1344 88° East 463 533 39,000  Level Albuquerque Center
Sat 10:12:19 PM 35.4878 -105.9789 87° East 458 527 39,000  Level Albuquerque Center
Sat 10:13:20 PM 35.4953 -105.8083 87° East 456 525 39,000  Level Albuquerque Center
Sat 10:14:21 PM 35.4989 -105.6525 88° East 453 521 39,000  Level Albuquerque Center
Sat 10:15:22 PM 35.5011 -105.5000 89° East 444 511 39,000  Level Albuquerque Center
Sat 10:16:23 PM 35.5053 -105.3422 88° East 454 522 39,000  Level Albuquerque Center
Sat 10:17:24 PM 35.5117 -105.1864 87° East 454 522 39,000  Level Albuquerque Center
Sat 10:18:25 PM 35.5161 -105.0289 88° East 456 525 39,000  Level Albuquerque Center
Sat 10:19:27 PM 35.5206 -104.8697 88° East 461 531 39,000  Level Albuquerque Center
Sat 10:20:28 PM 35.5253 -104.7111 88° East 462 532 39,000  Level Albuquerque Center
Sat 10:21:29 PM 35.5297 -104.5525 88° East 460 529 39,000  Level Albuquerque Center
Sat 10:22:30 PM 35.5342 -104.3947 88° East 457 526 39,000  Level Albuquerque Center
Sat 10:23:31 PM 35.5386 -104.2328 88° East 462 532 39,000  Level Albuquerque Center
Sat 10:24:32 PM 35.5417 -104.0725 89° East 462 532 39,000  Level Albuquerque Center
Sat 10:25:33 PM 35.5456 -103.9125 88° East 462 532 39,000  Level Albuquerque Center
Sat 10:26:34 PM 35.5481 -103.7564 89° East 455 524 39,000  Level Albuquerque Center
Sat 10:27:35 PM 35.5514 -103.5994 88° East 454 522 39,000  Level Albuquerque Center
Sat 10:28:36 PM 35.5539 -103.4442 89° East 452 520 39,000  Level Albuquerque Center
Sat 10:29:37 PM 35.5556 -103.2889 89° East 451 519 39,000  Level Albuquerque Center
Sat 10:30:38 PM 35.5581 -103.1314 89° East 455 524 39,000  Level Albuquerque Center
Sat 10:31:39 PM 35.5600 -102.9742 89° East 456 525 39,000  Level Albuquerque Center
Sat 10:32:40 PM 35.5617 -102.8161 89° East 458 527 39,000  Level Albuquerque Center
Sat 10:33:41 PM 35.5639 -102.6511 89° East 460 529 39,000  Level Albuquerque Center
Sat 10:34:42 PM 35.5633 -102.4944 90° East 460 529 39,000  Level Albuquerque Center
Sat 10:35:43 PM 35.5653 -102.3353 89° East 463 533 39,000  Level Albuquerque Center
Sat 10:36:44 PM 35.5658 -102.1736 90° East 470 541 39,000  Level Albuquerque Center
Sat 10:37:45 PM 35.5672 -102.0131 89° East 469 540 39,000  Level Albuquerque Center
Sat 10:38:46 PM 35.5686 -101.8519 89° East 469 540 39,000  Level Albuquerque Center
Sat 10:39:47 PM 35.5692 -101.6928 90° East 464 534 39,000  Level Albuquerque Center
Sat 10:40:48 PM 35.5692 -101.5319 90° East 465 535 39,000  Level Albuquerque Center
Sat 10:41:49 PM 35.5692 -101.3744 90° East 460 529 39,000  Level Albuquerque Center
Sat 10:42:50 PM 35.5681 -101.2167 90° East 460 529 39,000  Level Albuquerque Center
Sat 10:43:51 PM 35.5667 -101.0614 91° East 456 525 39,000  Level Albuquerque Center
Sat 10:44:52 PM 35.5664 -100.8767 90° East 452 520 39,000  Level Albuquerque Center
Sat 10:45:53 PM 35.5664 -100.7231 90° East 451 519 39,000  Level Albuquerque Center
Sat 10:46:54 PM 35.5647 -100.5897 91° East 450 518 39,000  Level Albuquerque Center
Sat 10:47:55 PM 35.5633 -100.4342 91° East 452 520 39,000  Level Albuquerque Center
Sat 10:48:56 PM 35.5619 -100.2808 91° East 451 519 39,000  Level Albuquerque Center
Sat 10:49:57 PM 35.5589 -100.0936 91° East 456 525 39,000  Level Albuquerque Center
Sat 10:50:58 PM 35.5564 -99.9386 91° East 456 525 39,000  Level Albuquerque Center
Sat 10:51:59 PM 35.5553 -99.7842 90° East 455 524 39,000  Level Albuquerque Center
Sat 10:53:00 PM 35.5528 -99.6303 91° East 454 522 39,000  Level Albuquerque Center
Sat 10:53:34 PM 35.5508 -99.5389 91° East 453 521 39,000  Level Fort Worth Center
Sat 10:54:34 PM 35.5450 -99.3831 93° East 453 521 39,000  Level Fort Worth Center
Sat 10:55:34 PM 35.5453 -99.2300 90° East 453 521 39,000  Level Fort Worth Center
Sat 10:56:34 PM 35.5389 -99.0767 93° East 453 521 39,000  Level Fort Worth Center
Sat 10:57:34 PM 35.5389 -98.9211 90° East 453 521 39,000  Level Fort Worth Center
Sat 10:58:34 PM 35.5344 -98.7656 92° East 453 521 39,000  Level Fort Worth Center
Sat 10:59:34 PM 35.5297 -98.6097 92° East 458 527 39,000  Level Fort Worth Center
Sat 11:00:34 PM 35.5289 -98.4619 90° East 452 520 39,000  Level Fort Worth Center
Sat 11:01:35 PM 35.5261 -98.3089 91° East 449 517 39,000  Level Fort Worth Center
Sat 11:02:35 PM 35.5228 -98.1583 92° East 444 511 39,000  Level Fort Worth Center
Sat 11:03:35 PM 35.5175 -98.0053 92° East 444 511 39,000  Level Fort Worth Center
Sat 11:04:35 PM 35.5117 -97.8572 93° East 444 511 39,000  Level Fort Worth Center
Sat 11:05:34 PM 35.5081 -97.7042 92° East 444 511 39,000  Level Fort Worth Center
Sat 11:06:35 PM 35.5042 -97.5539 92° East 444 511 39,000  Level Fort Worth Center
Sat 11:07:35 PM 35.5000 -97.4161 92° East 444 511 39,000  Level Fort Worth Center
Sat 11:08:35 PM 35.4936 -97.2606 93° East 449 517 39,000  Level Fort Worth Center
Sat 11:09:35 PM 35.4872 -97.1078 93° East 460 529 39,000  Level Fort Worth Center
Sat 11:10:35 PM 35.4867 -96.9572 90° East 449 517 39,000  Level Fort Worth Center
Sat 11:11:35 PM 35.5028 -96.8119 82° East 436 502 39,000  Level Fort Worth Center
Sat 11:12:35 PM 35.5167 -96.6639 83° East 436 502 39,000  Level Fort Worth Center
Sat 11:13:35 PM 35.5322 -96.5158 83° East 436 502 39,000  Level Fort Worth Center
Sat 11:14:35 PM 35.5478 -96.3675 83° East 436 502 39,000  Level Fort Worth Center
Sat 11:15:35 PM 35.5611 -96.2194 84° East 436 502 39,000  Level Fort Worth Center
Sat 11:16:35 PM 35.5764 -96.0686 83° East 436 502 39,000  Level Fort Worth Center
Sat 11:17:35 PM 35.5914 -95.9203 83° East 441 507 39,000  Level Fort Worth Center
Sat 11:18:35 PM 35.6061 -95.7744 83° East 441 507 39,000  Level Fort Worth Center
Sat 11:19:35 PM 35.6208 -95.6236 83° East 441 507 39,000  Level Fort Worth Center
Sat 11:20:35 PM 35.6353 -95.4728 83° East 446 513 39,000  Level Fort Worth Center
Sat 11:22:26 PM 35.6631 -95.1786 83° East 437 503 39,000  Level Memphis Center
Sat 11:23:26 PM 35.6750 -95.0286 84° East 437 503 39,000  Level Memphis Center
Sat 11:24:26 PM 35.6889 -94.8786 83° East 443 510 39,000  Level Memphis Center
Sat 11:25:26 PM 35.7006 -94.7283 84° East 443 510 39,000  Level Memphis Center
Sat 11:26:26 PM 35.7142 -94.5731 84° East 443 510 39,000  Level Memphis Center
Sat 11:27:27 PM 35.7275 -94.4231 84° East 443 510 39,000  Level Memphis Center
Sat 11:28:26 PM 35.7406 -94.2728 84° East 443 510 39,000  Level Memphis Center
Sat 11:29:26 PM 35.7517 -94.1172 85° East 443 510 39,000  Level Memphis Center
Sat 11:30:26 PM 35.7644 -93.9694 84° East 443 510 39,000  Level Memphis Center
Sat 11:31:26 PM 35.7772 -93.8139 84° East 443 510 39,000  Level Memphis Center
Sat 11:32:26 PM 35.7897 -93.6608 84° East 443 510 39,000  Level Memphis Center
Sat 11:33:26 PM 35.8000 -93.5078 85° East 443 510 39,000  Level Memphis Center
Sat 11:34:26 PM 35.8139 -93.3572 83° East 443 510 39,000  Level Memphis Center
Sat 11:35:26 PM 35.8261 -93.1989 85° East 443 510 39,000  Level Memphis Center
Sat 11:36:26 PM 35.8378 -93.0431 85° East 448 516 39,000  Level Memphis Center
Sat 11:37:26 PM 35.8494 -92.8822 85° East 458 527 39,000  Level Memphis Center
Sat 11:38:26 PM 35.8589 -92.7261 86° East 463 533 39,000  Level Memphis Center
Sat 11:39:26 PM 35.8681 -92.5678 86° East 458 527 39,000  Level Memphis Center
Sat 11:40:26 PM 35.8792 -92.4092 85° East 458 527 39,000  Level Memphis Center
Sat 11:41:27 PM 35.8900 -92.2506 85° East 458 527 39,000  Level Memphis Center
Sat 11:42:26 PM 35.8983 -92.1097 86° East 458 527 39,000  Level Memphis Center
Sat 11:43:26 PM 35.9086 -91.9511 85° East 458 527 39,000  Level Memphis Center
Sat 11:44:26 PM 35.9189 -91.7925 85° East 458 527 39,000  Level Memphis Center
Sat 11:45:26 PM 35.9289 -91.6361 85° East 458 527 39,000  Level Memphis Center
Sat 11:46:26 PM 35.9389 -91.4747 86° East 458 527 39,000  Level Memphis Center
Sat 11:47:26 PM 35.9403 -91.3006 89° East 458 527 39,000  Level Memphis Center
Sat 11:48:26 PM 35.9144 -91.1414 101° East 464 534 39,000  Level Memphis Center
Sat 11:49:26 PM 35.8756 -90.9847 107° East 469 540 39,000  Level Memphis Center
Sat 11:50:26 PM 35.8408 -90.8281 105° East 474 545 39,000  Level Memphis Center
Sat 11:51:26 PM 35.8039 -90.6692 106° East 479 551 39,000  Level Memphis Center
Sat 11:52:26 PM 35.7664 -90.5131 106° East 479 551 39,000  Level Memphis Center
Sat 11:53:26 PM 35.7311 -90.3519 105° East 479 551 39,000  Level Memphis Center
Sat 11:54:26 PM 35.6956 -90.1933 105° East 479 551 39,000  Level Memphis Center
Sat 11:55:26 PM 35.6744 -90.0403 100° East 484 557 39,000  Level Memphis Center
Sat 11:56:26 PM 35.6406 -89.8614 103° East 490 564 39,000  Level Memphis Center
Sat 11:57:26 PM 35.6083 -89.6983 104° East 490 564 39,000  Level Memphis Center
Sat 11:58:26 PM 35.5783 -89.5325 102° East 490 564 39,000  Level Memphis Center
Sat 11:59:26 PM 35.5644 -89.3667 96° East 490 564 39,000  Level Memphis Center
Sun 12:00:26 AM 35.5650 -89.1983 90° East 479 551 39,000 -1,150 Level Memphis Center
Sun 12:01:26 AM 35.5675 -89.0325 89° East 479 551 36,700 -2,200 Descending Memphis Center
Sun 12:02:26 AM 35.5681 -88.8792 90° East 486 559 34,600 -2,600 Descending Memphis Center
Sun 12:03:26 AM 35.5656 -88.7006 91° East 486 559 31,500 -2,800 Descending Memphis Center
Sun 12:04:26 AM 35.5822 -88.5344 83° East 481 554 29,000 -2,450 Descending Memphis Center
Sun 12:05:26 AM 35.6153 -88.3831 75° East 456 525 26,600 -2,300 Descending Memphis Center
Sun 12:06:26 AM 35.6589 -88.2389 70° East 451 519 24,400 -1,700 Descending Memphis Center
Sun 12:07:26 AM 35.7044 -88.1022 68° East 445 512 23,200 -1,950 Descending Memphis Center
Sun 12:08:26 AM 35.7456 -87.9603 70° East 430 495 20,500 -2,350 Descending Memphis Center
Sun 12:09:26 AM 35.7867 -87.8286 69° East 430 495 18,500 -2,050 Descending Memphis Center
Sun 12:10:26 AM 35.8236 -87.6994 71° East 409 471 16,400 -2,100 Descending Memphis Center
Sun 12:11:26 AM 35.8625 -87.5728 69° East 393 452 14,300 -2,050 Descending Memphis Center
Sun 12:12:26 AM 35.8972 -87.4511 71° East 381 438 12,300 -1,650 Descending Memphis Center
Sun 12:13:26 AM 35.9133 -87.3431 80° East 363 418 11,000 -1,100 Descending Memphis Center
Sun 12:14:26 AM 35.9169 -87.2350 88° East 334 384 10,100 -1,200 Descending Memphis Center
Sun 12:15:26 AM 35.9225 -87.1297 86° East 310 357 8,600 -1,600 Descending Memphis Center
Sun 12:16:26 AM 35.9264 -87.0322 87° East 294 338 6,900 -1,650 Descending Memphis Center
Sun 12:17:26 AM 35.9300 -86.9347 87° East 289 333 5,300 -1,550 Descending Memphis Center
Sun 12:18:26 AM 35.9336 -86.8397 87° East 289 333 3,800 -1,200 Descending Memphis Center
Sun 12:19:26 AM 35.9456 -86.7547 80° East 268 308 2,900 -650 Descending Memphis Center
Sun 12:20:26 AM 36.0075 -86.7261 20° North 209 241 2,500 -645 Descending Memphis Center
Sun 12:21:27 AM 36.0528 -86.7089 17° North 184 212 1,600 -850 Descending Memphis Center
Sun 12:22:26 AM 36.0919 -86.6917 20° North 153 176 800 -454 Descending Memphis Center
Sun 12:23:26 AM 36.1392 -86.6742 17° North 153 176 700 -100 Descending Memphis Center
Sun 12:27:00 AM 36.1245 -86.6782 180° South  Level Estimated
Sun 12:34:00 AM 36.1245 -86.6782 180° South  Level Estimated
Sun 12:35:00 AM 36.1245 -86.6782 180° South  Level Estimated
Sun 12:36:00 AM 36.1245 -86.6782 180° South  Level Estimated
Sun 12:37:00 AM 36.1245 -86.6782 180° South  Level Estimated
Sun 12:38:00 AM 36.1245 -86.6782 180° South  Level Estimated
Sun 12:39:00 AM 36.1245 -86.6782 180° South  Level Estimated

Login

Don't have an account? Register now (free) for customized features, flight alerts, and more!